Time;durP1;ratioP1;P1;durP2;ratioP2;P2;SDS_P1;SDS_P2;PMS_P1;PMS_P2;Temp;Humidity;BMP_temperature;BMP_pressure;BME280_temperature;BME280_humidity;BME280_pressure;Samples;Min_cycle;Max_cycle;Signal;HPM_P1;HPM_P2
2023/10/28 00:02:14;;;;;;;2.53;2.22;;;;;;;;;;5096930;28;20059;-78
2023/10/28 00:04:39;;;;;;;2.38;2.17;;;;;;;;;;5097877;28;20026;-72
2023/10/28 00:07:05;;;;;;;2.30;2.08;;;;;;;;;;5099777;28;20027;-73
2023/10/28 00:09:30;;;;;;;3.83;2.70;;;;;;;;;;5095968;28;20036;-72
2023/10/28 00:11:55;;;;;;;2.67;2.10;;;;;;;;;;5097653;28;20453;-74
2023/10/28 00:14:21;;;;;;;2.40;2.20;;;;;;;;;;5096642;28;20324;-77
2023/10/28 00:16:49;;;;;;;2.60;2.40;;;;;;;;;;5097807;28;20027;-77
2023/10/28 00:19:16;;;;;;;2.60;2.40;;;;;;;;;;5094497;28;20081;-73
2023/10/28 00:21:41;;;;;;;3.17;2.72;;;;;;;;;;5087190;28;20016;-77
2023/10/28 00:24:07;;;;;;;4.03;2.63;;;;;;;;;;5098333;28;20102;-74
2023/10/28 00:26:32;;;;;;;2.55;2.35;;;;;;;;;;5096710;28;20091;-75
2023/10/28 00:28:58;;;;;;;3.38;2.58;;;;;;;;;;5097928;28;20032;-72
2023/10/28 00:31:24;;;;;;;3.10;2.60;;;;;;;;;;5095722;28;20035;-71
2023/10/28 00:33:49;;;;;;;2.90;2.70;;;;;;;;;;5096685;28;20042;-73
2023/10/28 00:36:15;;;;;;;3.00;2.70;;;;;;;;;;5097800;28;20071;-77
2023/10/28 00:38:40;;;;;;;2.80;2.60;;;;;;;;;;5096964;28;20023;-73
2023/10/28 00:41:06;;;;;;;3.22;2.95;;;;;;;;;;5098287;28;20063;-78
2023/10/28 00:43:32;;;;;;;2.83;2.60;;;;;;;;;;5098383;28;20138;-74
2023/10/28 00:45:59;;;;;;;4.65;2.92;;;;;;;;;;5096098;28;20063;-73
2023/10/28 00:48:25;;;;;;;3.53;2.60;;;;;;;;;;5085070;28;20019;-74
2023/10/28 00:50:50;;;;;;;3.08;2.88;;;;;;;;;;5096320;28;20079;-74
2023/10/28 00:53:17;;;;;;;3.40;3.20;;;;;;;;;;5095249;28;20092;-72
2023/10/28 00:55:42;;;;;;;3.25;3.00;;;;;;;;;;5092023;28;20135;-73
2023/10/28 00:58:08;;;;;;;4.45;3.30;;;;;;;;;;5096629;28;23096;-73
2023/10/28 01:00:35;;;;;;;3.45;3.15;;;;;;;;;;5097931;28;20018;-72
2023/10/28 01:03:02;;;;;;;3.42;3.10;;;;;;;;;;5094649;28;20062;-73
2023/10/28 01:05:29;;;;;;;3.30;2.97;;;;;;;;;;5095966;28;20487;-74
2023/10/28 01:07:55;;;;;;;3.30;3.00;;;;;;;;;;5097022;28;20028;-72
2023/10/28 01:10:40;;;;;;;3.78;3.50;;;;;;;;;;5092824;28;20118;-72
2023/10/28 01:13:06;;;;;;;3.72;3.42;;;;;;;;;;5095638;28;20035;-74
2023/10/28 01:15:31;;;;;;;4.03;3.53;;;;;;;;;;5093292;28;20023;-72
2023/10/28 01:17:59;;;;;;;3.38;3.08;;;;;;;;;;5095793;28;20035;-74
2023/10/28 01:20:25;;;;;;;3.50;3.20;;;;;;;;;;5086457;28;20023;-73
2023/10/28 01:22:50;;;;;;;3.55;3.20;;;;;;;;;;5083518;28;20503;-76
2023/10/28 01:25:15;;;;;;;3.25;3.05;;;;;;;;;;5083174;28;20038;-73
2023/10/28 01:27:43;;;;;;;3.10;2.90;;;;;;;;;;5086352;28;20028;-77
2023/10/28 01:30:13;;;;;;;3.53;3.30;;;;;;;;;;5094507;28;20055;-73
2023/10/28 01:32:39;;;;;;;3.30;3.00;;;;;;;;;;5094598;28;20032;-72
2023/10/28 01:35:04;;;;;;;3.60;3.22;;;;;;;;;;5094006;28;20101;-73
2023/10/28 01:37:30;;;;;;;3.00;2.80;;;;;;;;;;5097045;28;20047;-75
2023/10/28 01:39:56;;;;;;;3.00;2.30;;;;;;;;;;5097491;28;20422;-74
2023/10/28 01:42:22;;;;;;;3.53;2.35;;;;;;;;;;5096837;28;20098;-73
2023/10/28 01:44:48;;;;;;;3.83;2.25;;;;;;;;;;5095825;28;20050;-73
2023/10/28 01:47:13;;;;;;;5.03;2.10;;;;;;;;;;5096996;28;20031;-72
2023/10/28 01:49:39;;;;;;;3.85;1.73;;;;;;;;;;5089942;28;20020;-73
2023/10/28 01:52:07;;;;;;;1.90;1.50;;;;;;;;;;5088290;28;20070;-72
2023/10/28 01:54:33;;;;;;;1.90;1.50;;;;;;;;;;5094819;28;20517;-73
2023/10/28 01:57:05;;;;;;;2.83;1.48;;;;;;;;;;5089710;28;20035;-72
2023/10/28 01:59:31;;;;;;;1.05;1.05;;;;;;;;;;5089343;28;20020;-73
2023/10/28 02:01:57;;;;;;;2.15;1.10;;;;;;;;;;5095956;28;20057;-73
2023/10/28 02:04:22;;;;;;;1.05;0.90;;;;;;;;;;5093818;28;20058;-75
2023/10/28 02:06:50;;;;;;;1.75;0.93;;;;;;;;;;5096097;28;20100;-73
2023/10/28 02:09:15;;;;;;;1.20;0.63;;;;;;;;;;5093800;28;20020;-74
2023/10/28 02:11:40;;;;;;;2.13;0.60;;;;;;;;;;5094091;28;20427;-73
2023/10/28 02:14:08;;;;;;;0.90;0.60;;;;;;;;;;5095119;28;20394;-76
2023/10/28 02:16:34;;;;;;;2.00;0.70;;;;;;;;;;5094893;28;20324;-72
2023/10/28 02:18:59;;;;;;;0.68;0.60;;;;;;;;;;5088382;28;20054;-73
2023/10/28 02:21:24;;;;;;;1.80;0.60;;;;;;;;;;5088861;28;20057;-72
2023/10/28 02:23:49;;;;;;;0.55;0.50;;;;;;;;;;5096341;28;20031;-76
2023/10/28 02:26:16;;;;;;;1.48;0.60;;;;;;;;;;5095771;28;20080;-72
2023/10/28 02:28:42;;;;;;;1.27;0.50;;;;;;;;;;5097061;28;20120;-78
2023/10/28 02:31:10;;;;;;;0.60;0.50;;;;;;;;;;5089076;28;20624;-75
2023/10/28 02:33:35;;;;;;;0.70;0.45;;;;;;;;;;5099521;28;20031;-72
2023/10/28 02:36:08;;;;;;;1.85;0.70;;;;;;;;;;5100892;28;20048;-72
2023/10/28 02:38:36;;;;;;;0.98;0.50;;;;;;;;;;5098730;28;20402;-73
2023/10/28 02:41:05;;;;;;;0.85;0.50;;;;;;;;;;5099114;28;20035;-73
2023/10/28 02:43:30;;;;;;;0.60;0.60;;;;;;;;;;5096898;28;20236;-73
2023/10/28 02:45:55;;;;;;;1.77;1.00;;;;;;;;;;5097312;28;20509;-72
2023/10/28 02:48:21;;;;;;;3.60;2.92;;;;;;;;;;5099331;28;20433;-72
2023/10/28 02:50:46;;;;;;;7.10;4.78;;;;;;;;;;5099182;28;20427;-73
2023/10/28 02:53:11;;;;;;;5.60;3.80;;;;;;;;;;5098591;28;20054;-72
2023/10/28 02:55:37;;;;;;;3.40;2.70;;;;;;;;;;5099958;28;20012;-73
2023/10/28 02:58:02;;;;;;;2.55;1.88;;;;;;;;;;5097529;28;20084;-77
2023/10/28 03:00:28;;;;;;;2.75;2.00;;;;;;;;;;5096234;28;20032;-77
2023/10/28 03:02:55;;;;;;;2.70;2.30;;;;;;;;;;5089675;28;20024;-75
2023/10/28 03:05:24;;;;;;;3.53;1.65;;;;;;;;;;5094907;28;20443;-72
2023/10/28 03:07:49;;;;;;;1.55;1.45;;;;;;;;;;5089255;28;20427;-76
2023/10/28 03:10:15;;;;;;;1.35;1.25;;;;;;;;;;5098190;28;20038;-77
2023/10/28 03:12:40;;;;;;;1.25;1.10;;;;;;;;;;5100311;28;20470;-71
2023/10/28 03:15:08;;;;;;;3.10;2.00;;;;;;;;;;5097941;28;20350;-71
2023/10/28 03:17:34;;;;;;;1.63;1.40;;;;;;;;;;5097441;28;20124;-77
2023/10/28 03:19:59;;;;;;;2.53;1.40;;;;;;;;;;5097326;28;20564;-73
2023/10/28 03:22:25;;;;;;;1.55;1.45;;;;;;;;;;5096195;28;20110;-78
2023/10/28 03:24:51;;;;;;;5.38;1.52;;;;;;;;;;5091496;28;20556;-72
2023/10/28 03:27:16;;;;;;;3.08;1.70;;;;;;;;;;5098368;28;20103;-72
2023/10/28 03:29:42;;;;;;;2.97;1.40;;;;;;;;;;5098960;28;20024;-71
2023/10/28 03:32:07;;;;;;;4.88;1.70;;;;;;;;;;5100271;28;20455;-72
2023/10/28 03:34:33;;;;;;;2.30;2.03;;;;;;;;;;5098596;28;20366;-76
2023/10/28 03:36:58;;;;;;;4.45;2.40;;;;;;;;;;5097658;28;20470;-73
2023/10/28 03:39:23;;;;;;;4.95;2.10;;;;;;;;;;5097244;28;20024;-75
2023/10/28 03:41:49;;;;;;;2.45;1.40;;;;;;;;;;5096718;28;20122;-75
2023/10/28 03:44:14;;;;;;;1.38;1.27;;;;;;;;;;5099724;28;20375;-71
2023/10/28 03:46:40;;;;;;;1.35;1.10;;;;;;;;;;5098068;28;20019;-73
2023/10/28 03:49:05;;;;;;;3.80;1.48;;;;;;;;;;5096161;28;20027;-72
2023/10/28 03:51:30;;;;;;;1.30;1.20;;;;;;;;;;5096490;28;20459;-72
2023/10/28 03:53:56;;;;;;;3.83;2.70;;;;;;;;;;5097507;28;20038;-71
2023/10/28 03:56:21;;;;;;;41.15;24.20;;;;;;;;;;5096239;28;20028;-74
2023/10/28 03:58:46;;;;;;;41.10;24.75;;;;;;;;;;5096132;28;20106;-71
2023/10/28 04:01:12;;;;;;;11.82;7.65;;;;;;;;;;5097420;28;20197;-75
2023/10/28 04:03:37;;;;;;;7.47;3.22;;;;;;;;;;5099796;28;20028;-72
2023/10/28 04:06:03;;;;;;;5.65;2.58;;;;;;;;;;5098480;27;20047;-74
2023/10/28 04:08:28;;;;;;;2.55;1.98;;;;;;;;;;5097555;28;21259;-74
2023/10/28 04:10:53;;;;;;;2.92;2.30;;;;;;;;;;5096787;28;20182;-72
2023/10/28 04:13:19;;;;;;;1.73;1.45;;;;;;;;;;5097143;28;20434;-73
2023/10/28 04:15:45;;;;;;;2.33;1.40;;;;;;;;;;5096924;28;20399;-72
2023/10/28 04:18:10;;;;;;;2.00;1.40;;;;;;;;;;5098175;28;20024;-71
2023/10/28 04:20:37;;;;;;;1.42;1.30;;;;;;;;;;5098152;28;20103;-76
2023/10/28 04:23:03;;;;;;;1.30;1.20;;;;;;;;;;5096061;28;20028;-73
2023/10/28 04:25:28;;;;;;;1.20;1.10;;;;;;;;;;5096361;28;20735;-71
2023/10/28 04:27:53;;;;;;;3.45;1.85;;;;;;;;;;5099556;28;20171;-72
2023/10/28 04:30:19;;;;;;;4.30;2.80;;;;;;;;;;5097528;28;20031;-72
2023/10/28 04:32:44;;;;;;;4.00;3.60;;;;;;;;;;5096105;28;20043;-73
2023/10/28 04:35:12;;;;;;;3.00;2.70;;;;;;;;;;5097641;28;20038;-72
2023/10/28 04:37:38;;;;;;;3.67;2.42;;;;;;;;;;5094824;28;20112;-71
2023/10/28 04:40:05;;;;;;;2.85;2.33;;;;;;;;;;5095065;28;20085;-71
2023/10/28 04:42:31;;;;;;;2.35;2.15;;;;;;;;;;5094965;28;20035;-71
2023/10/28 04:44:57;;;;;;;11.90;8.70;;;;;;;;;;5096945;28;20112;-72
2023/10/28 04:47:24;;;;;;;9.27;8.27;;;;;;;;;;5097537;28;20023;-76
2023/10/28 04:49:49;;;;;;;25.67;18.92;;;;;;;;;;5086422;28;20046;-71
2023/10/28 04:52:15;;;;;;;29.35;20.67;;;;;;;;;;5096543;28;20032;-74
2023/10/28 04:54:40;;;;;;;19.48;14.05;;;;;;;;;;5095399;28;20026;-72
2023/10/28 04:57:05;;;;;;;9.23;7.28;;;;;;;;;;5086320;28;20023;-73
2023/10/28 04:59:31;;;;;;;7.18;5.72;;;;;;;;;;5082544;28;20031;-76
2023/10/28 05:01:56;;;;;;;6.53;4.50;;;;;;;;;;5084477;28;20031;-73
2023/10/28 05:04:25;;;;;;;4.70;4.07;;;;;;;;;;5083574;28;20077;-79
2023/10/28 05:06:53;;;;;;;6.63;3.55;;;;;;;;;;5087658;28;20022;-71
2023/10/28 05:09:20;;;;;;;4.30;3.30;;;;;;;;;;5097179;28;20413;-73
2023/10/28 05:11:55;;;;;;;3.17;2.65;;;;;;;;;;5097808;28;20038;-72
2023/10/28 05:14:21;;;;;;;2.88;2.63;;;;;;;;;;5091238;28;20030;-74
2023/10/28 05:16:46;;;;;;;4.65;3.03;;;;;;;;;;5070204;28;20520;-72
2023/10/28 05:19:12;;;;;;;6.38;4.82;;;;;;;;;;5067178;28;20020;-73
2023/10/28 05:21:37;;;;;;;6.07;5.07;;;;;;;;;;5068632;28;20032;-71
2023/10/28 05:24:03;;;;;;;6.15;4.65;;;;;;;;;;5068601;28;20467;-72
2023/10/28 05:26:28;;;;;;;4.13;3.72;;;;;;;;;;5070587;28;20361;-73
2023/10/28 05:28:54;;;;;;;11.90;7.13;;;;;;;;;;5066901;28;20024;-76
2023/10/28 05:31:19;;;;;;;22.88;12.70;;;;;;;;;;5069505;28;20359;-73
2023/10/28 05:33:45;;;;;;;11.90;7.07;;;;;;;;;;5067120;28;20035;-73
2023/10/28 05:36:10;;;;;;;6.75;5.45;;;;;;;;;;5069699;28;20043;-72
2023/10/28 05:38:36;;;;;;;9.85;8.90;;;;;;;;;;5067874;28;20469;-73
2023/10/28 05:41:03;;;;;;;8.77;6.90;;;;;;;;;;5068756;28;20112;-77
2023/10/28 05:43:28;;;;;;;4.07;3.78;;;;;;;;;;5069625;28;20034;-74
2023/10/28 05:45:54;;;;;;;8.88;8.18;;;;;;;;;;5067182;28;20027;-72
2023/10/28 05:48:20;;;;;;;8.75;7.95;;;;;;;;;;5068806;28;20107;-72
2023/10/28 05:50:45;;;;;;;6.80;5.82;;;;;;;;;;5067257;28;20144;-75
2023/10/28 05:53:10;;;;;;;5.63;4.82;;;;;;;;;;5068146;28;20095;-71
2023/10/28 05:55:36;;;;;;;6.47;4.30;;;;;;;;;;5069928;28;20032;-74
2023/10/28 05:58:01;;;;;;;5.75;4.60;;;;;;;;;;5069396;28;20016;-72
2023/10/28 06:00:28;;;;;;;4.43;3.95;;;;;;;;;;5078848;28;20030;-73
2023/10/28 06:02:54;;;;;;;4.20;3.80;;;;;;;;;;5085884;28;20035;-76
2023/10/28 06:05:19;;;;;;;6.82;6.25;;;;;;;;;;5090213;28;20395;-72
2023/10/28 06:07:47;;;;;;;8.68;7.63;;;;;;;;;;5100951;27;20077;-72
2023/10/28 06:10:13;;;;;;;13.20;8.35;;;;;;;;;;5101767;28;20101;-76
2023/10/28 06:12:38;;;;;;;10.15;8.75;;;;;;;;;;5088774;28;20016;-74
2023/10/28 06:15:04;;;;;;;12.63;11.32;;;;;;;;;;5095531;28;20055;-77
2023/10/28 06:17:29;;;;;;;21.70;19.40;;;;;;;;;;5086316;28;20088;-71
2023/10/28 06:19:55;;;;;;;49.53;41.03;;;;;;;;;;5098717;28;20151;-72
2023/10/28 06:22:21;;;;;;;35.38;31.63;;;;;;;;;;5099998;28;20074;-73
2023/10/28 06:24:49;;;;;;;19.92;18.02;;;;;;;;;;5094422;28;20035;-76
2023/10/28 06:27:14;;;;;;;14.77;11.82;;;;;;;;;;5085813;28;20061;-74
2023/10/28 06:29:39;;;;;;;14.93;13.02;;;;;;;;;;5084941;28;20366;-73
2023/10/28 06:32:06;;;;;;;13.85;12.25;;;;;;;;;;5086459;28;20040;-73
2023/10/28 06:34:32;;;;;;;17.17;15.00;;;;;;;;;;5084562;28;20114;-76
2023/10/28 06:36:57;;;;;;;11.82;10.63;;;;;;;;;;5084275;28;20161;-76
2023/10/28 06:39:23;;;;;;;9.55;8.00;;;;;;;;;;5085691;28;20074;-77
2023/10/28 06:41:48;;;;;;;8.13;6.70;;;;;;;;;;5086340;28;20522;-73
2023/10/28 06:44:13;;;;;;;7.25;6.35;;;;;;;;;;5078442;28;20055;-72
2023/10/28 06:46:39;;;;;;;5.10;4.60;;;;;;;;;;5083277;28;21105;-72
2023/10/28 06:49:08;;;;;;;10.25;7.82;;;;;;;;;;5083276;28;20092;-72
2023/10/28 06:51:33;;;;;;;14.48;12.07;;;;;;;;;;5086087;28;20205;-74
2023/10/28 06:53:59;;;;;;;32.03;23.17;;;;;;;;;;5085497;28;20499;-76
2023/10/28 06:56:26;;;;;;;30.98;23.83;;;;;;;;;;5086648;28;20039;-73
2023/10/28 06:58:52;;;;;;;21.30;16.25;;;;;;;;;;5085518;28;20043;-75
2023/10/28 07:01:18;;;;;;;11.10;9.40;;;;;;;;;;5085547;28;20055;-73
2023/10/28 07:03:44;;;;;;;6.65;6.15;;;;;;;;;;5085446;28;20039;-76
2023/10/28 07:06:14;;;;;;;11.25;9.38;;;;;;;;;;5085859;28;20420;-73
2023/10/28 07:08:39;;;;;;;6.15;5.65;;;;;;;;;;5084146;28;20028;-73
2023/10/28 07:11:05;;;;;;;4.85;4.45;;;;;;;;;;5084663;28;20115;-72
2023/10/28 07:13:30;;;;;;;5.88;5.03;;;;;;;;;;5082769;28;20047;-72
2023/10/28 07:16:02;;;;;;;7.47;6.43;;;;;;;;;;5082370;28;20042;-76
2023/10/28 07:18:29;;;;;;;17.00;13.10;;;;;;;;;;5083147;28;20038;-72
2023/10/28 07:20:55;;;;;;;10.32;7.80;;;;;;;;;;5096735;28;20685;-77
2023/10/28 07:23:20;;;;;;;12.50;8.43;;;;;;;;;;5088977;28;20035;-76
2023/10/28 07:25:45;;;;;;;11.25;7.97;;;;;;;;;;5085817;28;20039;-72
2023/10/28 07:28:12;;;;;;;11.32;9.52;;;;;;;;;;5084674;28;20028;-72
2023/10/28 07:30:43;;;;;;;14.85;10.65;;;;;;;;;;5084650;28;20015;-73
2023/10/28 07:33:08;;;;;;;11.63;9.35;;;;;;;;;;5089480;28;20038;-75
2023/10/28 07:35:33;;;;;;;9.35;7.43;;;;;;;;;;5085874;28;20346;-72
2023/10/28 07:38:00;;;;;;;9.18;7.53;;;;;;;;;;5085281;28;20033;-76
2023/10/28 07:40:25;;;;;;;8.40;6.25;;;;;;;;;;5085383;28;20032;-75
2023/10/28 07:42:51;;;;;;;8.13;7.25;;;;;;;;;;5085058;28;20023;-74
2023/10/28 07:45:16;;;;;;;8.27;7.40;;;;;;;;;;5087402;28;20027;-73
2023/10/28 07:47:42;;;;;;;9.40;6.65;;;;;;;;;;5085308;28;20031;-73
2023/10/28 07:50:08;;;;;;;7.57;6.40;;;;;;;;;;5084666;27;20370;-72
2023/10/28 07:52:34;;;;;;;6.18;4.70;;;;;;;;;;5067766;28;20454;-73
2023/10/28 07:55:01;;;;;;;8.75;6.72;;;;;;;;;;5069166;28;20027;-73
2023/10/28 07:57:27;;;;;;;9.40;4.57;;;;;;;;;;5070556;28;20043;-75
2023/10/28 07:59:53;;;;;;;6.00;3.75;;;;;;;;;;5070471;28;20016;-72
2023/10/28 08:02:18;;;;;;;5.63;3.92;;;;;;;;;;4984348;28;20048;-73
2023/10/28 08:04:43;;;;;;;5.97;4.00;;;;;;;;;;5019890;28;20033;-74
2023/10/28 08:07:09;;;;;;;10.70;6.05;;;;;;;;;;5012484;28;20053;-76
2023/10/28 08:09:35;;;;;;;7.78;3.83;;;;;;;;;;5019057;28;20063;-75
2023/10/28 08:12:00;;;;;;;5.88;3.10;;;;;;;;;;5009543;28;20033;-73
2023/10/28 08:14:26;;;;;;;5.88;3.30;;;;;;;;;;5014836;28;20506;-75
2023/10/28 08:16:51;;;;;;;5.07;2.20;;;;;;;;;;5011891;28;20057;-73
2023/10/28 08:19:17;;;;;;;4.00;1.63;;;;;;;;;;5013162;28;20022;-75
2023/10/28 08:21:42;;;;;;;5.97;2.53;;;;;;;;;;5016063;28;20049;-72
2023/10/28 08:24:11;;;;;;;4.32;1.88;;;;;;;;;;5013362;28;20043;-72
2023/10/28 08:26:37;;;;;;;3.35;1.85;;;;;;;;;;5011331;28;20057;-72
2023/10/28 08:29:02;;;;;;;3.50;1.70;;;;;;;;;;5023651;28;20076;-72
2023/10/28 08:31:28;;;;;;;6.05;1.90;;;;;;;;;;5022484;28;20044;-74
2023/10/28 08:33:53;;;;;;;6.78;1.92;;;;;;;;;;5023210;28;20424;-73
2023/10/28 08:36:19;;;;;;;4.07;2.00;;;;;;;;;;5013174;28;20049;-76
2023/10/28 08:38:44;;;;;;;6.72;2.15;;;;;;;;;;5012064;28;20124;-76
2023/10/28 08:41:11;;;;;;;5.05;2.17;;;;;;;;;;5013370;28;20436;-73
2023/10/28 08:43:36;;;;;;;7.00;2.58;;;;;;;;;;5013946;28;20024;-71
2023/10/28 08:46:04;;;;;;;5.05;1.92;;;;;;;;;;5014978;28;20044;-71
2023/10/28 08:48:30;;;;;;;5.22;2.22;;;;;;;;;;5028755;28;20023;-75
2023/10/28 08:50:59;;;;;;;4.85;2.35;;;;;;;;;;5025868;28;20035;-72
2023/10/28 08:53:24;;;;;;;4.53;2.40;;;;;;;;;;5027617;28;20055;-72
2023/10/28 08:55:50;;;;;;;4.53;1.80;;;;;;;;;;5030219;28;20522;-74
2023/10/28 08:58:18;;;;;;;3.13;1.85;;;;;;;;;;5036760;28;20024;-71
2023/10/28 09:00:44;;;;;;;6.97;2.20;;;;;;;;;;5037010;28;20047;-75
2023/10/28 09:03:10;;;;;;;4.47;2.28;;;;;;;;;;5033972;28;20432;-76
2023/10/28 09:05:38;;;;;;;4.55;2.00;;;;;;;;;;5028304;28;20028;-73
2023/10/28 09:08:04;;;;;;;5.18;2.10;;;;;;;;;;5022021;28;20124;-71
2023/10/28 09:10:30;;;;;;;4.40;1.60;;;;;;;;;;5020269;28;20108;-72
2023/10/28 09:12:55;;;;;;;5.90;2.10;;;;;;;;;;5011697;28;20041;-73
2023/10/28 09:15:21;;;;;;;5.70;2.15;;;;;;;;;;5018877;28;20033;-75
2023/10/28 09:17:47;;;;;;;7.25;2.60;;;;;;;;;;5028259;28;20032;-76
2023/10/28 09:20:12;;;;;;;13.63;7.30;;;;;;;;;;5003879;28;20036;-72
2023/10/28 09:22:43;;;;;;;10.48;5.57;;;;;;;;;;5006877;28;20049;-73
2023/10/28 09:25:14;;;;;;;6.43;2.63;;;;;;;;;;5012176;28;20064;-73
2023/10/28 09:27:40;;;;;;;6.65;2.10;;;;;;;;;;5019252;28;20025;-72
2023/10/28 09:30:06;;;;;;;4.85;2.33;;;;;;;;;;5021287;28;20451;-72
2023/10/28 09:32:32;;;;;;;5.85;2.10;;;;;;;;;;5020252;28;20716;-72
2023/10/28 09:34:57;;;;;;;3.50;1.40;;;;;;;;;;5015010;28;20453;-73
2023/10/28 09:37:23;;;;;;;7.85;3.47;;;;;;;;;;5012947;28;20045;-76
2023/10/28 09:39:50;;;;;;;5.28;1.90;;;;;;;;;;5010203;28;20029;-73
2023/10/28 09:42:16;;;;;;;4.78;2.08;;;;;;;;;;5008482;28;20347;-75
2023/10/28 09:44:44;;;;;;;5.63;2.70;;;;;;;;;;5005262;28;20036;-76
2023/10/28 09:47:13;;;;;;;7.07;2.22;;;;;;;;;;5003835;28;20419;-72
2023/10/28 09:49:39;;;;;;;8.07;2.08;;;;;;;;;;5003327;28;20032;-74
2023/10/28 09:52:07;;;;;;;4.43;2.03;;;;;;;;;;5006090;28;20108;-76
2023/10/28 09:54:36;;;;;;;7.47;2.77;;;;;;;;;;5005419;28;20431;-75
2023/10/28 09:57:02;;;;;;;9.68;3.15;;;;;;;;;;5020907;28;20040;-76
2023/10/28 09:59:29;;;;;;;3.85;1.92;;;;;;;;;;5003967;28;20033;-77
2023/10/28 10:01:59;;;;;;;5.15;2.00;;;;;;;;;;5005931;28;20057;-73
2023/10/28 10:04:24;;;;;;;4.40;2.20;;;;;;;;;;5004433;28;20064;-76
2023/10/28 10:06:50;;;;;;;4.18;1.77;;;;;;;;;;5007817;28;20470;-76
2023/10/28 10:09:18;;;;;;;6.63;1.92;;;;;;;;;;5009765;28;20175;-73
2023/10/28 10:11:44;;;;;;;4.60;2.30;;;;;;;;;;5013332;28;20029;-73
2023/10/28 10:14:10;;;;;;;3.80;2.00;;;;;;;;;;5026473;28;20032;-77
2023/10/28 10:16:39;;;;;;;3.85;2.10;;;;;;;;;;5013446;28;20025;-72
2023/10/28 10:19:07;;;;;;;3.75;1.60;;;;;;;;;;5009653;28;20061;-74
2023/10/28 10:21:33;;;;;;;5.65;1.45;;;;;;;;;;5011613;28;20040;-72
2023/10/28 10:24:02;;;;;;;6.55;2.35;;;;;;;;;;5013226;28;20043;-72
2023/10/28 10:26:29;;;;;;;4.60;2.10;;;;;;;;;;5009264;28;20455;-74
2023/10/28 10:28:55;;;;;;;4.55;2.50;;;;;;;;;;5013585;28;20032;-72
2023/10/28 10:31:27;;;;;;;3.80;1.90;;;;;;;;;;5007801;28;20029;-78
2023/10/28 10:34:09;;;;;;;3.67;2.10;;;;;;;;;;5020200;28;20041;-73
2023/10/28 10:36:41;;;;;;;3.97;1.63;;;;;;;;;;5004955;28;20114;-76
2023/10/28 10:39:18;;;;;;;6.00;2.05;;;;;;;;;;5011534;28;20048;-74
2023/10/28 10:41:52;;;;;;;6.63;2.70;;;;;;;;;;5010582;28;20032;-75
2023/10/28 10:44:21;;;;;;;7.70;2.10;;;;;;;;;;5008061;28;20395;-75
2023/10/28 10:46:47;;;;;;;;;;;;;;;;;;5010020;28;20410;-76
2023/10/28 10:49:12;;;;;;;4.57;1.80;;;;;;;;;;5011702;28;19917;-76
2023/10/28 10:51:39;;;;;;;6.53;1.77;;;;;;;;;;5011354;28;20029;-78
2023/10/28 10:54:04;;;;;;;4.72;1.80;;;;;;;;;;5012957;28;20106;-77
2023/10/28 10:56:30;;;;;;;5.10;1.70;;;;;;;;;;5009116;28;20565;-77
2023/10/28 10:58:55;;;;;;;5.30;1.80;;;;;;;;;;5009510;28;20104;-80
2023/10/28 11:01:20;;;;;;;3.40;1.77;;;;;;;;;;5032614;28;20025;-77
2023/10/28 11:03:46;;;;;;;7.60;2.20;;;;;;;;;;5010870;28;20529;-77
2023/10/28 11:06:12;;;;;;;5.72;2.10;;;;;;;;;;5015851;28;20038;-75
2023/10/28 11:08:38;;;;;;;4.00;2.05;;;;;;;;;;5012301;28;20352;-76
2023/10/28 11:11:03;;;;;;;5.28;1.90;;;;;;;;;;5026032;28;20029;-74
2023/10/28 11:13:29;;;;;;;5.00;1.52;;;;;;;;;;5025855;28;20071;-75
2023/10/28 11:15:55;;;;;;;6.00;2.25;;;;;;;;;;5027648;28;20025;-79
2023/10/28 11:18:20;;;;;;;4.32;1.50;;;;;;;;;;5024977;28;20033;-76
2023/10/28 11:20:47;;;;;;;5.07;1.80;;;;;;;;;;5024744;28;20025;-75
2023/10/28 11:23:12;;;;;;;3.20;1.80;;;;;;;;;;5024009;28;20044;-76
2023/10/28 11:25:38;;;;;;;9.27;1.40;;;;;;;;;;5026995;28;20029;-74
2023/10/28 11:28:06;;;;;;;4.47;1.75;;;;;;;;;;5013446;28;20119;-76
2023/10/28 11:30:32;;;;;;;4.70;1.90;;;;;;;;;;5028154;28;20024;-73
2023/10/28 11:32:57;;;;;;;3.35;1.60;;;;;;;;;;5024167;28;20113;-74
2023/10/28 11:35:24;;;;;;;4.82;1.40;;;;;;;;;;5023767;28;20071;-74
2023/10/28 11:37:51;;;;;;;4.80;1.95;;;;;;;;;;5011497;28;20283;-75
2023/10/28 11:40:20;;;;;;;3.97;1.60;;;;;;;;;;5013978;28;20028;-77
2023/10/28 11:42:46;;;;;;;3.42;1.70;;;;;;;;;;5020388;28;20372;-78
2023/10/28 11:45:15;;;;;;;4.55;1.73;;;;;;;;;;5031750;28;20029;-77
2023/10/28 11:47:41;;;;;;;4.78;2.05;;;;;;;;;;5027636;28;20328;-78
2023/10/28 11:50:07;;;;;;;7.80;2.10;;;;;;;;;;5018463;28;20436;-77
2023/10/28 11:52:33;;;;;;;4.43;1.50;;;;;;;;;;5022271;28;20045;-77
2023/10/28 11:55:03;;;;;;;6.30;2.10;;;;;;;;;;5014698;28;20029;-75
2023/10/28 11:57:30;;;;;;;3.25;2.00;;;;;;;;;;5013989;28;20025;-75
2023/10/28 11:59:55;;;;;;;3.35;1.50;;;;;;;;;;5014782;28;20037;-73
2023/10/28 12:02:20;;;;;;;3.20;1.63;;;;;;;;;;5014760;28;20103;-77
2023/10/28 12:04:46;;;;;;;4.93;2.03;;;;;;;;;;5014648;28;20029;-75
2023/10/28 12:07:11;;;;;;;5.93;1.77;;;;;;;;;;5015195;28;20115;-75
2023/10/28 12:09:37;;;;;;;3.67;1.70;;;;;;;;;;5013299;28;20075;-75
2023/10/28 12:12:03;;;;;;;5.40;1.77;;;;;;;;;;5015315;28;20037;-75
2023/10/28 12:14:29;;;;;;;4.40;1.83;;;;;;;;;;5012725;28;20079;-73
2023/10/28 12:16:54;;;;;;;6.53;2.00;;;;;;;;;;5014289;28;20014;-74
2023/10/28 12:19:19;;;;;;;4.32;1.65;;;;;;;;;;5014221;28;20036;-74
2023/10/28 12:21:45;;;;;;;3.88;2.10;;;;;;;;;;5013104;28;20025;-76
2023/10/28 12:24:11;;;;;;;3.88;2.38;;;;;;;;;;5013735;28;20025;-72
2023/10/28 12:26:37;;;;;;;5.88;1.80;;;;;;;;;;5012560;28;20124;-74
2023/10/28 12:29:03;;;;;;;2.47;1.70;;;;;;;;;;5009741;28;20103;-73
2023/10/28 12:31:29;;;;;;;5.65;2.20;;;;;;;;;;5014502;28;20137;-76
2023/10/28 12:33:54;;;;;;;4.78;1.80;;;;;;;;;;5011816;28;20410;-76
2023/10/28 12:36:20;;;;;;;4.82;1.80;;;;;;;;;;5015378;28;20050;-79
2023/10/28 12:38:45;;;;;;;2.80;1.45;;;;;;;;;;5026240;28;20029;-77
2023/10/28 12:41:11;;;;;;;3.95;2.10;;;;;;;;;;5023248;28;20643;-78
2023/10/28 12:43:37;;;;;;;3.38;1.80;;;;;;;;;;5012129;28;20114;-78
2023/10/28 12:46:03;;;;;;;4.85;1.73;;;;;;;;;;5025276;28;20375;-77
2023/10/28 12:48:29;;;;;;;5.60;1.88;;;;;;;;;;5024938;28;20037;-77
2023/10/28 12:50:54;;;;;;;3.35;1.60;;;;;;;;;;5026002;28;20025;-77
2023/10/28 12:53:20;;;;;;;2.63;1.30;;;;;;;;;;5013893;28;20108;-77
2023/10/28 12:55:45;;;;;;;4.53;2.10;;;;;;;;;;5023638;28;20176;-77
2023/10/28 12:58:10;;;;;;;3.00;1.77;;;;;;;;;;5022768;28;20340;-78
2023/10/28 13:00:37;;;;;;;6.40;2.10;;;;;;;;;;5017700;28;20135;-78
2023/10/28 13:03:04;;;;;;;2.53;1.63;;;;;;;;;;5024641;28;20030;-77
2023/10/28 13:05:29;;;;;;;5.13;3.08;;;;;;;;;;5021856;28;20025;-77
2023/10/28 13:07:54;;;;;;;4.60;1.90;;;;;;;;;;5023993;28;20420;-79
2023/10/28 13:10:20;;;;;;;4.88;1.73;;;;;;;;;;5008607;28;20303;-78
2023/10/28 13:12:45;;;;;;;2.95;1.20;;;;;;;;;;5010690;28;20124;-79
2023/10/28 13:15:10;;;;;;;4.38;1.90;;;;;;;;;;5010943;28;20440;-78
2023/10/28 13:17:36;;;;;;;3.78;2.22;;;;;;;;;;5011857;28;20371;-77
2023/10/28 13:20:04;;;;;;;6.00;1.92;;;;;;;;;;5012342;28;20029;-79
2023/10/28 13:22:30;;;;;;;3.58;1.52;;;;;;;;;;5010715;28;20028;-78
2023/10/28 13:24:55;;;;;;;3.35;1.70;;;;;;;;;;5011347;28;20093;-78
2023/10/28 13:27:21;;;;;;;8.15;2.08;;;;;;;;;;5011280;28;20444;-78
2023/10/28 13:29:46;;;;;;;6.63;2.20;;;;;;;;;;5010383;28;20032;-79
2023/10/28 13:32:12;;;;;;;6.00;2.30;;;;;;;;;;5013491;28;20029;-78
2023/10/28 13:34:38;;;;;;;6.20;2.15;;;;;;;;;;5012631;28;20040;-77
2023/10/28 13:37:04;;;;;;;5.38;2.00;;;;;;;;;;5010245;28;20042;-77
2023/10/28 13:39:29;;;;;;;4.88;1.60;;;;;;;;;;5012394;28;20041;-78
2023/10/28 13:41:55;;;;;;;3.22;1.60;;;;;;;;;;5011355;28;20020;-77
2023/10/28 13:44:20;;;;;;;9.50;2.28;;;;;;;;;;5012584;28;20120;-77
2023/10/28 13:46:46;;;;;;;4.47;2.00;;;;;;;;;;5010574;28;20038;-79
2023/10/28 13:49:13;;;;;;;4.85;1.88;;;;;;;;;;5015313;28;20033;-78
2023/10/28 13:51:39;;;;;;;5.20;2.20;;;;;;;;;;5032726;28;20111;-78
2023/10/28 13:54:04;;;;;;;3.65;1.80;;;;;;;;;;5035519;28;20112;-77
2023/10/28 13:56:30;;;;;;;6.32;3.30;;;;;;;;;;5025869;28;20104;-79
2023/10/28 13:58:55;;;;;;;3.92;2.13;;;;;;;;;;5038545;28;20037;-78
2023/10/28 14:01:20;;;;;;;4.90;1.90;;;;;;;;;;5037458;28;20029;-78
2023/10/28 14:03:46;;;;;;;5.03;2.53;;;;;;;;;;5035691;28;20029;-79
2023/10/28 14:06:12;;;;;;;4.30;2.08;;;;;;;;;;5038234;28;20044;-78
2023/10/28 14:08:38;;;;;;;4.13;2.28;;;;;;;;;;5037991;28;20159;-79
2023/10/28 14:11:04;;;;;;;4.93;2.17;;;;;;;;;;5039657;28;20400;-79
2023/10/28 14:13:30;;;;;;;4.95;2.05;;;;;;;;;;5037338;28;20086;-78
2023/10/28 14:15:55;;;;;;;5.95;2.60;;;;;;;;;;5036201;28;20099;-78
2023/10/28 14:18:21;;;;;;;7.93;3.47;;;;;;;;;;5036714;28;20550;-78
2023/10/28 14:20:47;;;;;;;6.07;3.15;;;;;;;;;;5037810;28;20036;-77
2023/10/28 14:23:13;;;;;;;3.42;2.45;;;;;;;;;;5041496;28;20036;-78
2023/10/28 14:25:38;;;;;;;3.40;2.30;;;;;;;;;;5041273;28;20087;-77
2023/10/28 14:28:04;;;;;;;4.68;2.45;;;;;;;;;;5041402;28;20033;-77
2023/10/28 14:30:29;;;;;;;4.75;1.95;;;;;;;;;;5016955;28;20136;-77
2023/10/28 14:32:55;;;;;;;4.20;1.80;;;;;;;;;;5016752;28;20036;-80
2023/10/28 14:35:23;;;;;;;3.40;1.98;;;;;;;;;;5017623;28;20112;-77